sensor_id;sensor_type;location;lat;lon;timestamp;pressure;altitude;pressure_sealevel;temperature;humidity
23899;BME280;20544;50.018;20.010;2024-01-10T00:00:58;100520.69;;;-16.00;100.00
23899;BME280;20544;50.018;20.010;2024-01-10T00:04:35;100526.80;;;-15.90;100.00
23899;BME280;20544;50.018;20.010;2024-01-10T00:18:51;100526.05;;;-15.85;100.00
23899;BME280;20544;50.018;20.010;2024-01-10T00:22:10;100524.23;;;-15.92;100.00
23899;BME280;20544;50.018;20.010;2024-01-10T00:25:31;100524.95;;;-15.99;100.00
23899;BME280;20544;50.018;20.010;2024-01-10T00:28:49;100527.51;;;-15.98;100.00
23899;BME280;20544;50.018;20.010;2024-01-10T00:32:09;100525.95;;;-15.91;100.00
23899;BME280;20544;50.018;20.010;2024-01-10T00:35:27;100525.03;;;-15.95;100.00
23899;BME280;20544;50.018;20.010;2024-01-10T00:38:45;100526.76;;;-15.93;100.00
23899;BME280;20544;50.018;20.010;2024-01-10T00:42:03;100519.95;;;-15.95;100.00
23899;BME280;20544;50.018;20.010;2024-01-10T00:45:28;100525.86;;;-15.96;100.00
23899;BME280;20544;50.018;20.010;2024-01-10T00:49:04;100525.88;;;-15.94;100.00
23899;BME280;20544;50.018;20.010;2024-01-10T00:52:39;100524.95;;;-15.99;100.00
23899;BME280;20544;50.018;20.010;2024-01-10T00:55:58;100530.02;;;-16.01;100.00
23899;BME280;20544;50.018;20.010;2024-01-10T00:59:16;100533.42;;;-15.99;100.00
23899;BME280;20544;50.018;20.010;2024-01-10T01:02:39;100524.02;;;-16.04;100.00
23899;BME280;20544;50.018;20.010;2024-01-10T01:06:00;100533.34;;;-16.05;100.00
23899;BME280;20544;50.018;20.010;2024-01-10T01:09:18;100532.59;;;-15.98;100.00
23899;BME280;20544;50.018;20.010;2024-01-10T01:12:36;100532.58;;;-15.99;100.00
23899;BME280;20544;50.018;20.010;2024-01-10T01:19:38;100516.03;;;-16.24;100.00
23899;BME280;20544;50.018;20.010;2024-01-10T01:37:54;100514.21;;;-16.30;100.00
23899;BME280;20544;50.018;20.010;2024-01-10T01:41:12;100512.61;;;-16.25;100.00
23899;BME280;20544;50.018;20.010;2024-01-10T01:44:30;100501.69;;;-16.21;100.00
23899;BME280;20544;50.018;20.010;2024-01-10T01:47:49;100504.41;;;-16.10;100.00
23899;BME280;20544;50.018;20.010;2024-01-10T01:51:07;100496.83;;;-16.08;100.00
23899;BME280;20544;50.018;20.010;2024-01-10T01:54:27;100500.79;;;-16.23;100.00
23899;BME280;20544;50.018;20.010;2024-01-10T01:57:44;100498.21;;;-16.26;100.00
23899;BME280;20544;50.018;20.010;2024-01-10T02:01:02;100498.94;;;-16.32;100.00
23899;BME280;20544;50.018;20.010;2024-01-10T02:04:21;100506.59;;;-16.30;100.00
23899;BME280;20544;50.018;20.010;2024-01-10T02:07:39;100504.16;;;-16.24;100.00
23899;BME280;20544;50.018;20.010;2024-01-10T02:10:57;100505.03;;;-16.23;100.00
23899;BME280;20544;50.018;20.010;2024-01-10T02:14:15;100498.02;;;-16.35;100.00
23899;BME280;20544;50.018;20.010;2024-01-10T02:17:32;100503.20;;;-16.31;100.00
23899;BME280;20544;50.018;20.010;2024-01-10T02:20:51;100501.63;;;-16.22;100.00
23899;BME280;20544;50.018;20.010;2024-01-10T02:24:09;100502.44;;;-16.25;100.00
23899;BME280;20544;50.018;20.010;2024-01-10T02:27:27;100502.53;;;-16.20;100.00
23899;BME280;20544;50.018;20.010;2024-01-10T02:30:44;100487.23;;;-16.23;100.00
23899;BME280;20544;50.018;20.010;2024-01-10T02:34:02;100488.04;;;-16.26;100.00
23899;BME280;20544;50.018;20.010;2024-01-10T02:37:22;100483.80;;;-16.25;100.00
23899;BME280;20544;50.018;20.010;2024-01-10T02:40:42;100481.39;;;-16.18;100.00
23899;BME280;20544;50.018;20.010;2024-01-10T02:44:00;100476.50;;;-16.07;100.00
23899;BME280;20544;50.018;20.010;2024-01-10T02:47:20;100473.95;;;-16.07;100.00
23899;BME280;20544;50.018;20.010;2024-01-10T02:50:39;100483.93;;;-16.18;100.00
23899;BME280;20544;50.018;20.010;2024-01-10T02:53:57;100474.34;;;-16.33;100.00
23899;BME280;20544;50.018;20.010;2024-01-10T02:57:15;100461.66;;;-16.31;100.00
23899;BME280;20544;50.018;20.010;2024-01-10T03:00:32;100464.27;;;-16.28;100.00
23899;BME280;20544;50.018;20.010;2024-01-10T03:03:50;100450.79;;;-16.22;100.00
23899;BME280;20544;50.018;20.010;2024-01-10T03:07:08;100450.25;;;-16.06;100.00
23899;BME280;20544;50.018;20.010;2024-01-10T03:10:25;100461.55;;;-15.88;100.00
23899;BME280;20544;50.018;20.010;2024-01-10T03:13:45;100448.72;;;-15.96;100.00
23899;BME280;20544;50.018;20.010;2024-01-10T03:17:05;100449.16;;;-16.19;100.00
23899;BME280;20544;50.018;20.010;2024-01-10T03:20:23;100438.05;;;-16.25;100.00
23899;BME280;20544;50.018;20.010;2024-01-10T03:23:41;100435.59;;;-16.21;100.00
23899;BME280;20544;50.018;20.010;2024-01-10T03:26:58;100434.84;;;-16.14;100.00
23899;BME280;20544;50.018;20.010;2024-01-10T03:30:16;100435.73;;;-16.12;100.00
23899;BME280;20544;50.018;20.010;2024-01-10T03:33:35;100443.63;;;-15.96;100.00
23899;BME280;20544;50.018;20.010;2024-01-10T03:36:52;100444.67;;;-15.80;100.00
23899;BME280;20544;50.018;20.010;2024-01-10T03:40:11;100451.17;;;-16.01;100.00
23899;BME280;20544;50.018;20.010;2024-01-10T03:43:29;100442.47;;;-16.14;100.00
23899;BME280;20544;50.018;20.010;2024-01-10T03:46:48;100441.60;;;-16.16;100.00
23899;BME280;20544;50.018;20.010;2024-01-10T03:50:08;100436.33;;;-16.27;100.00
23899;BME280;20544;50.018;20.010;2024-01-10T03:53:24;100444.02;;;-16.23;100.00
23899;BME280;20544;50.018;20.010;2024-01-10T03:56:42;100443.32;;;-16.15;100.00
23899;BME280;20544;50.018;20.010;2024-01-10T03:59:59;100432.22;;;-16.20;100.00
23899;BME280;20544;50.018;20.010;2024-01-10T04:03:17;100417.72;;;-16.24;100.00
23899;BME280;20544;50.018;20.010;2024-01-10T04:06:35;100431.45;;;-16.14;100.00
23899;BME280;20544;50.018;20.010;2024-01-10T04:09:53;100427.31;;;-16.07;100.00
23899;BME280;20544;50.018;20.010;2024-01-10T04:13:11;100424.01;;;-16.03;100.00
23899;BME280;20544;50.018;20.010;2024-01-10T04:16:29;100427.47;;;-16.00;100.00
23899;BME280;20544;50.018;20.010;2024-01-10T04:19:46;100428.17;;;-16.08;100.00
23899;BME280;20544;50.018;20.010;2024-01-10T04:23:04;100431.57;;;-16.06;100.00
23899;BME280;20544;50.018;20.010;2024-01-10T04:26:21;100434.78;;;-16.18;100.00
23899;BME280;20544;50.018;20.010;2024-01-10T04:29:41;100424.51;;;-16.24;100.00
23899;BME280;20544;50.018;20.010;2024-01-10T04:32:59;100427.96;;;-16.21;100.00
23899;BME280;20544;50.018;20.010;2024-01-10T04:36:17;100430.54;;;-16.18;100.00
23899;BME280;20544;50.018;20.010;2024-01-10T04:39:36;100431.16;;;-16.31;100.00
23899;BME280;20544;50.018;20.010;2024-01-10T04:42:54;100430.33;;;-16.30;100.00
23899;BME280;20544;50.018;20.010;2024-01-10T04:46:17;100421.57;;;-16.46;100.00
23899;BME280;20544;50.018;20.010;2024-01-10T04:49:35;100441.37;;;-16.30;100.00
23899;BME280;20544;50.018;20.010;2024-01-10T04:52:59;100434.66;;;-16.26;100.00
23899;BME280;20544;50.018;20.010;2024-01-10T04:56:18;100430.09;;;-16.44;100.00
23899;BME280;20544;50.018;20.010;2024-01-10T04:59:35;100430.18;;;-16.39;100.00
23899;BME280;20544;50.018;20.010;2024-01-10T05:02:54;100426.77;;;-16.40;100.00
23899;BME280;20544;50.018;20.010;2024-01-10T05:06:15;100432.59;;;-16.47;100.00
23899;BME280;20544;50.018;20.010;2024-01-10T05:13:18;100455.16;;;-16.15;100.00
23899;BME280;20544;50.018;20.010;2024-01-10T05:16:36;100445.41;;;-16.41;100.00
23899;BME280;20544;50.018;20.010;2024-01-10T05:23:54;100445.22;;;-16.50;100.00
23899;BME280;20544;50.018;20.010;2024-01-10T05:27:18;100447.99;;;-16.38;100.00
23899;BME280;20544;50.018;20.010;2024-01-10T05:30:40;100448.19;;;-16.27;100.00
23899;BME280;20544;50.018;20.010;2024-01-10T05:34:36;100452.36;;;-16.31;100.00
23899;BME280;20544;50.018;20.010;2024-01-10T05:37:54;100454.20;;;-16.22;100.00
23899;BME280;20544;50.018;20.010;2024-01-10T05:41:13;100463.77;;;-16.08;100.00
23899;BME280;20544;50.018;20.010;2024-01-10T05:44:33;100452.40;;;-16.28;100.00
23899;BME280;20544;50.018;20.010;2024-01-10T05:47:54;100459.88;;;-16.37;100.00
23899;BME280;20544;50.018;20.010;2024-01-10T05:51:12;100458.84;;;-16.47;100.00
23899;BME280;20544;50.018;20.010;2024-01-10T05:54:29;100451.09;;;-16.54;100.00
23899;BME280;20544;50.018;20.010;2024-01-10T05:57:50;100444.17;;;-16.62;100.00
23899;BME280;20544;50.018;20.010;2024-01-10T06:01:08;100440.78;;;-16.62;100.00
23899;BME280;20544;50.018;20.010;2024-01-10T06:04:25;100444.44;;;-16.46;100.00
23899;BME280;20544;50.018;20.010;2024-01-10T06:07:43;100455.77;;;-16.29;100.00
23899;BME280;20544;50.018;20.010;2024-01-10T06:11:04;100459.97;;;-16.32;100.00
23899;BME280;20544;50.018;20.010;2024-01-10T06:14:21;100455.50;;;-16.44;100.00
23899;BME280;20544;50.018;20.010;2024-01-10T06:17:39;100464.77;;;-16.46;100.00
23899;BME280;20544;50.018;20.010;2024-01-10T06:20:57;100456.40;;;-16.42;100.00
23899;BME280;20544;50.018;20.010;2024-01-10T06:24:15;100458.25;;;-16.33;100.00
23899;BME280;20544;50.018;20.010;2024-01-10T06:27:33;100466.67;;;-16.36;100.00
23899;BME280;20544;50.018;20.010;2024-01-10T06:30:51;100467.52;;;-16.35;100.00
23899;BME280;20544;50.018;20.010;2024-01-10T06:34:09;100462.53;;;-16.31;100.00
23899;BME280;20544;50.018;20.010;2024-01-10T06:37:27;100461.59;;;-16.36;100.00
23899;BME280;20544;50.018;20.010;2024-01-10T06:40:46;100459.97;;;-16.32;100.00
23899;BME280;20544;50.018;20.010;2024-01-10T06:44:04;100453.28;;;-16.27;100.00
23899;BME280;20544;50.018;20.010;2024-01-10T06:47:24;100455.03;;;-16.23;100.00
23899;BME280;20544;50.018;20.010;2024-01-10T06:50:43;100434.69;;;-16.23;100.00
23899;BME280;20544;50.018;20.010;2024-01-10T06:54:01;100446.73;;;-16.13;100.00
23899;BME280;20544;50.018;20.010;2024-01-10T06:57:19;100450.45;;;-15.93;100.00
23899;BME280;20544;50.018;20.010;2024-01-10T07:00:37;100447.76;;;-16.01;100.00
23899;BME280;20544;50.018;20.010;2024-01-10T07:03:58;100439.19;;;-16.08;100.00
23899;BME280;20544;50.018;20.010;2024-01-10T07:07:19;100441.80;;;-16.05;100.00
23899;BME280;20544;50.018;20.010;2024-01-10T07:10:40;100432.80;;;-15.83;100.00
23899;BME280;20544;50.018;20.010;2024-01-10T07:13:58;100440.55;;;-15.73;100.00
23899;BME280;20544;50.018;20.010;2024-01-10T07:17:16;100447.58;;;-15.57;100.00
23899;BME280;20544;50.018;20.010;2024-01-10T07:20:33;100444.59;;;-15.28;100.00
23899;BME280;20544;50.018;20.010;2024-01-10T07:23:50;100453.67;;;-14.83;100.00
23899;BME280;20544;50.018;20.010;2024-01-10T07:27:12;100456.37;;;-14.70;100.00
23899;BME280;20544;50.018;20.010;2024-01-10T07:30:32;100459.77;;;-14.68;100.00
23899;BME280;20544;50.018;20.010;2024-01-10T07:33:52;100465.79;;;-14.60;100.00
23899;BME280;20544;50.018;20.010;2024-01-10T07:37:10;100462.57;;;-14.42;100.00
23899;BME280;20544;50.018;20.010;2024-01-10T07:40:49;100458.72;;;-14.01;100.00
23899;BME280;20544;50.018;20.010;2024-01-10T07:44:35;100461.38;;;-13.90;100.00
23899;BME280;20544;50.018;20.010;2024-01-10T07:47:55;100464.64;;;-14.07;100.00
23899;BME280;20544;50.018;20.010;2024-01-10T07:51:16;100463.70;;;-14.17;100.00
23899;BME280;20544;50.018;20.010;2024-01-10T08:02:12;100455.55;;;-13.75;100.00
23899;BME280;20544;50.018;20.010;2024-01-10T08:05:30;100457.41;;;-13.51;100.00
23899;BME280;20544;50.018;20.010;2024-01-10T08:08:48;100458.29;;;-13.47;100.00
23899;BME280;20544;50.018;20.010;2024-01-10T08:12:06;100458.16;;;-13.66;100.00
23899;BME280;20544;50.018;20.010;2024-01-10T08:15:24;100454.94;;;-13.42;100.00
23899;BME280;20544;50.018;20.010;2024-01-10T08:19:16;100464.47;;;-13.04;100.00
23899;BME280;20544;50.018;20.010;2024-01-10T08:22:35;100462.97;;;-12.60;100.00
23899;BME280;20544;50.018;20.010;2024-01-10T08:25:56;100474.11;;;-12.31;100.00
23899;BME280;20544;50.018;20.010;2024-01-10T08:33:21;100480.13;;;-11.77;100.00
23899;BME280;20544;50.018;20.010;2024-01-10T08:36:41;100478.44;;;-11.89;100.00
23899;BME280;20544;50.018;20.010;2024-01-10T08:40:01;100474.16;;;-11.94;100.00
23899;BME280;20544;50.018;20.010;2024-01-10T08:43:22;100470.77;;;-11.99;100.00
23899;BME280;20544;50.018;20.010;2024-01-10T08:47:00;100472.47;;;-12.11;100.00
23899;BME280;20544;50.018;20.010;2024-01-10T08:50:22;100463.09;;;-12.01;100.00
23899;BME280;20544;50.018;20.010;2024-01-10T08:53:55;100462.22;;;-11.92;100.00
23899;BME280;20544;50.018;20.010;2024-01-10T08:57:15;100448.55;;;-11.87;100.00
23899;BME280;20544;50.018;20.010;2024-01-10T09:00:42;100463.92;;;-11.59;100.00
23899;BME280;20544;50.018;20.010;2024-01-10T09:04:17;100461.35;;;-11.40;100.00
23899;BME280;20544;50.018;20.010;2024-01-10T09:07:49;100458.73;;;-11.22;100.00
23899;BME280;20544;50.018;20.010;2024-01-10T09:11:10;100456.98;;;-10.98;100.00
23899;BME280;20544;50.018;20.010;2024-01-10T09:14:29;100456.91;;;-10.78;100.00
23899;BME280;20544;50.018;20.010;2024-01-10T09:21:55;100457.71;;;-10.69;100.00
23899;BME280;20544;50.018;20.010;2024-01-10T09:25:26;100459.40;;;-10.62;100.00
23899;BME280;20544;50.018;20.010;2024-01-10T09:29:07;100450.72;;;-10.40;100.00
23899;BME280;20544;50.018;20.010;2024-01-10T09:32:42;100448.05;;;-10.27;100.00
23899;BME280;20544;50.018;20.010;2024-01-10T09:36:00;100440.39;;;-10.30;100.00
23899;BME280;20544;50.018;20.010;2024-01-10T09:39:40;100438.53;;;-10.10;100.00
23899;BME280;20544;50.018;20.010;2024-01-10T09:42:59;100420.59;;;-10.16;100.00
23899;BME280;20544;50.018;20.010;2024-01-10T09:46:20;100403.34;;;-9.98;100.00
23899;BME280;20544;50.018;20.010;2024-01-10T09:49:42;100407.55;;;-9.89;100.00
23899;BME280;20544;50.018;20.010;2024-01-10T09:53:47;100404.08;;;-9.82;100.00
23899;BME280;20544;50.018;20.010;2024-01-10T10:01:20;100409.27;;;-9.00;100.00
23899;BME280;20544;50.018;20.010;2024-01-10T10:04:40;100407.23;;;-8.74;100.00
23899;BME280;20544;50.018;20.010;2024-01-10T10:08:17;100397.67;;;-8.65;100.00
23899;BME280;20544;50.018;20.010;2024-01-10T10:22:50;100392.75;;;-8.24;100.00
23899;BME280;20544;50.018;20.010;2024-01-10T10:26:25;100390.95;;;-8.17;100.00
23899;BME280;20544;50.018;20.010;2024-01-10T10:29:48;100395.85;;;-8.02;100.00
23899;BME280;20544;50.018;20.010;2024-01-10T10:33:13;100391.16;;;-7.76;100.00
23899;BME280;20544;50.018;20.010;2024-01-10T10:36:33;100401.02;;;-7.52;100.00
23899;BME280;20544;50.018;20.010;2024-01-10T10:39:51;100392.23;;;-7.40;100.00
23899;BME280;20544;50.018;20.010;2024-01-10T10:43:11;100399.62;;;-7.21;100.00
23899;BME280;20544;50.018;20.010;2024-01-10T10:47:00;100402.69;;;-7.02;100.00
23899;BME280;20544;50.018;20.010;2024-01-10T10:50:47;100386.91;;;-6.88;100.00
23899;BME280;20544;50.018;20.010;2024-01-10T10:54:22;100371.30;;;-6.82;100.00
23899;BME280;20544;50.018;20.010;2024-01-10T10:58:03;100383.02;;;-6.66;100.00
23899;BME280;20544;50.018;20.010;2024-01-10T11:01:39;100373.31;;;-6.56;100.00
23899;BME280;20544;50.018;20.010;2024-01-10T11:05:18;100373.13;;;-6.46;100.00
23899;BME280;20544;50.018;20.010;2024-01-10T11:33:49;100372.70;;;-6.28;100.00
23899;BME280;20544;50.018;20.010;2024-01-10T11:37:14;100375.20;;;-6.25;100.00
23899;BME280;20544;50.018;20.010;2024-01-10T11:40:56;100354.53;;;-6.25;100.00
23899;BME280;20544;50.018;20.010;2024-01-10T11:48:46;100364.03;;;-6.25;100.00
23899;BME280;20544;50.018;20.010;2024-01-10T11:52:06;100356.97;;;-6.19;100.00
23899;BME280;20544;50.018;20.010;2024-01-10T11:56:02;100360.04;;;-6.03;100.00
23899;BME280;20544;50.018;20.010;2024-01-10T11:59:46;100356.63;;;-6.05;100.00
23899;BME280;20544;50.018;20.010;2024-01-10T12:03:13;100361.31;;;-5.86;100.00
23899;BME280;20544;50.018;20.010;2024-01-10T12:06:34;100358.38;;;-5.72;100.00
23899;BME280;20544;50.018;20.010;2024-01-10T12:09:57;100370.30;;;-5.66;100.00
23899;BME280;20544;50.018;20.010;2024-01-10T12:13:40;100359.14;;;-5.69;100.00
23899;BME280;20544;50.018;20.010;2024-01-10T12:17:28;100368.40;;;-5.60;100.00
23899;BME280;20544;50.018;20.010;2024-01-10T12:20:59;100372.58;;;-5.54;100.00
23899;BME280;20544;50.018;20.010;2024-01-10T12:24:19;100360.69;;;-5.61;100.00
23899;BME280;20544;50.018;20.010;2024-01-10T12:27:45;100356.56;;;-5.69;100.00
23899;BME280;20544;50.018;20.010;2024-01-10T12:31:07;100335.80;;;-5.98;100.00
23899;BME280;20544;50.018;20.010;2024-01-10T12:34:25;100334.39;;;-6.10;100.00
23899;BME280;20544;50.018;20.010;2024-01-10T12:44:44;100308.45;;;-6.06;100.00
23899;BME280;20544;50.018;20.010;2024-01-10T12:48:22;100293.69;;;-6.02;100.00
23899;BME280;20544;50.018;20.010;2024-01-10T12:55:41;100300.25;;;-5.90;100.00
23899;BME280;20544;50.018;20.010;2024-01-10T12:59:27;100294.16;;;-5.88;100.00
23899;BME280;20544;50.018;20.010;2024-01-10T13:03:01;100285.41;;;-5.82;100.00
23899;BME280;20544;50.018;20.010;2024-01-10T13:06:55;100286.35;;;-5.86;100.00
23899;BME280;20544;50.018;20.010;2024-01-10T13:10:49;100283.61;;;-5.80;100.00
23899;BME280;20544;50.018;20.010;2024-01-10T13:14:44;100284.42;;;-5.78;100.00
23899;BME280;20544;50.018;20.010;2024-01-10T13:18:21;100286.96;;;-5.76;100.00
23899;BME280;20544;50.018;20.010;2024-01-10T13:22:30;100284.33;;;-5.75;100.00
23899;BME280;20544;50.018;20.010;2024-01-10T13:25:50;100276.57;;;-5.75;100.00
23899;BME280;20544;50.018;20.010;2024-01-10T13:29:53;100269.96;;;-5.85;100.00
23899;BME280;20544;50.018;20.010;2024-01-10T13:38:25;100279.47;;;-5.86;100.00
23899;BME280;20544;50.018;20.010;2024-01-10T13:42:48;100275.13;;;-5.85;100.00
23899;BME280;20544;50.018;20.010;2024-01-10T13:47:00;100284.65;;;-5.87;100.00
23899;BME280;20544;50.018;20.010;2024-01-10T13:50:50;100272.81;;;-5.96;100.00
23899;BME280;20544;50.018;20.010;2024-01-10T13:58:26;100258.80;;;-6.19;100.00
23899;BME280;20544;50.018;20.010;2024-01-10T14:02:17;100266.59;;;-6.20;100.00
23899;BME280;20544;50.018;20.010;2024-01-10T14:06:01;100261.27;;;-6.14;100.00
23899;BME280;20544;50.018;20.010;2024-01-10T14:09:45;100263.23;;;-6.24;100.00
23899;BME280;20544;50.018;20.010;2024-01-10T14:13:39;100239.77;;;-6.49;100.00
23899;BME280;20544;50.018;20.010;2024-01-10T14:17:06;100250.24;;;-6.55;100.00
23899;BME280;20544;50.018;20.010;2024-01-10T14:20:39;100254.67;;;-6.60;100.00
23899;BME280;20544;50.018;20.010;2024-01-10T14:24:12;100246.92;;;-6.60;100.00
23899;BME280;20544;50.018;20.010;2024-01-10T14:38:47;100236.99;;;-6.77;100.00
23899;BME280;20544;50.018;20.010;2024-01-10T14:46:02;100237.88;;;-6.78;100.00
23899;BME280;20544;50.018;20.010;2024-01-10T14:52:47;100230.09;;;-7.15;100.00
23899;BME280;20544;50.018;20.010;2024-01-10T14:56:51;100218.45;;;-7.33;100.00
23899;BME280;20544;50.018;20.010;2024-01-10T15:00:41;100229.78;;;-7.40;100.00
23899;BME280;20544;50.018;20.010;2024-01-10T15:04:02;100224.04;;;-7.53;100.00
23899;BME280;20544;50.018;20.010;2024-01-10T15:08:00;100223.30;;;-7.59;100.00
23899;BME280;20544;50.018;20.010;2024-01-10T15:11:20;100218.06;;;-7.55;100.00
23899;BME280;20544;50.018;20.010;2024-01-10T15:14:54;100226.75;;;-7.59;100.00
23899;BME280;20544;50.018;20.010;2024-01-10T15:22:18;100228.86;;;-7.80;100.00
23899;BME280;20544;50.018;20.010;2024-01-10T15:25:42;100228.27;;;-7.94;100.00
23899;BME280;20544;50.018;20.010;2024-01-10T15:29:35;100223.30;;;-8.03;100.00
23899;BME280;20544;50.018;20.010;2024-01-10T15:33:05;100212.27;;;-8.10;100.00
23899;BME280;20544;50.018;20.010;2024-01-10T15:37:16;100203.21;;;-8.31;100.00
23899;BME280;20544;50.018;20.010;2024-01-10T15:40:50;100215.18;;;-8.29;100.00
23899;BME280;20544;50.018;20.010;2024-01-10T15:44:09;100213.41;;;-8.26;100.00
23899;BME280;20544;50.018;20.010;2024-01-10T15:47:29;100223.59;;;-8.19;100.00
23899;BME280;20544;50.018;20.010;2024-01-10T15:50:48;100210.76;;;-8.22;100.00
23899;BME280;20544;50.018;20.010;2024-01-10T15:54:21;100206.07;;;-8.47;100.00
23899;BME280;20544;50.018;20.010;2024-01-10T15:57:40;100210.48;;;-8.53;100.00
23899;BME280;20544;50.018;20.010;2024-01-10T16:01:13;100214.97;;;-8.65;100.00
23899;BME280;20544;50.018;20.010;2024-01-10T16:04:39;100198.02;;;-8.78;100.00
23899;BME280;20544;50.018;20.010;2024-01-10T16:08:07;100209.85;;;-8.68;100.00
23899;BME280;20544;50.018;20.010;2024-01-10T16:11:33;100216.60;;;-8.61;100.00
23899;BME280;20544;50.018;20.010;2024-01-10T16:15:02;100221.11;;;-8.75;100.00
23899;BME280;20544;50.018;20.010;2024-01-10T16:18:42;100215.26;;;-8.83;100.00
23899;BME280;20544;50.018;20.010;2024-01-10T16:22:11;100213.55;;;-8.84;100.00
23899;BME280;20544;50.018;20.010;2024-01-10T16:25:29;100211.05;;;-8.89;100.00
23899;BME280;20544;50.018;20.010;2024-01-10T16:28:49;100218.79;;;-8.90;100.00
23899;BME280;20544;50.018;20.010;2024-01-10T16:32:07;100214.45;;;-8.87;100.00
23899;BME280;20544;50.018;20.010;2024-01-10T16:35:25;100221.14;;;-8.77;100.00
23899;BME280;20544;50.018;20.010;2024-01-10T16:38:43;100211.02;;;-8.87;100.00
23899;BME280;20544;50.018;20.010;2024-01-10T16:42:09;100203.42;;;-8.94;100.00
23899;BME280;20544;50.018;20.010;2024-01-10T16:45:28;100209.43;;;-8.96;100.00
23899;BME280;20544;50.018;20.010;2024-01-10T16:48:47;100188.86;;;-8.96;100.00
23899;BME280;20544;50.018;20.010;2024-01-10T16:52:10;100192.14;;;-8.86;100.00
23899;BME280;20544;50.018;20.010;2024-01-10T16:55:40;100196.41;;;-8.85;100.00
23899;BME280;20544;50.018;20.010;2024-01-10T16:59:00;100202.42;;;-8.85;100.00
23899;BME280;20544;50.018;20.010;2024-01-10T17:02:19;100197.44;;;-8.96;100.00
23899;BME280;20544;50.018;20.010;2024-01-10T17:05:38;100178.56;;;-8.96;100.00
23899;BME280;20544;50.018;20.010;2024-01-10T17:08:56;100180.14;;;-8.87;100.00
23899;BME280;20544;50.018;20.010;2024-01-10T17:12:15;100171.45;;;-8.80;100.00
23899;BME280;20544;50.018;20.010;2024-01-10T17:15:34;100184.32;;;-8.80;100.00
23899;BME280;20544;50.018;20.010;2024-01-10T17:18:53;100176.13;;;-9.04;100.00
23899;BME280;20544;50.018;20.010;2024-01-10T17:22:13;100174.52;;;-9.11;100.00
23899;BME280;20544;50.018;20.010;2024-01-10T17:25:43;100182.28;;;-9.14;100.00
23899;BME280;20544;50.018;20.010;2024-01-10T17:29:02;100185.06;;;-9.28;100.00
23899;BME280;20544;50.018;20.010;2024-01-10T17:32:20;100180.91;;;-9.38;100.00
23899;BME280;20544;50.018;20.010;2024-01-10T17:35:38;100180.23;;;-9.51;100.00
23899;BME280;20544;50.018;20.010;2024-01-10T17:38:58;100171.80;;;-9.60;100.00
23899;BME280;20544;50.018;20.010;2024-01-10T17:42:19;100161.52;;;-9.60;100.00
23899;BME280;20544;50.018;20.010;2024-01-10T17:53:57;100149.75;;;-9.78;100.00
23899;BME280;20544;50.018;20.010;2024-01-10T17:57:59;100132.61;;;-9.77;100.00
23899;BME280;20544;50.018;20.010;2024-01-10T18:01:17;100130.03;;;-9.77;100.00
23899;BME280;20544;50.018;20.010;2024-01-10T18:04:57;100125.01;;;-9.85;100.00
23899;BME280;20544;50.018;20.010;2024-01-10T18:19:14;100114.17;;;-9.43;100.00
23899;BME280;20544;50.018;20.010;2024-01-10T18:22:32;100115.95;;;-9.50;100.00
23899;BME280;20544;50.018;20.010;2024-01-10T18:26:12;100109.20;;;-9.55;100.00
23899;BME280;20544;50.018;20.010;2024-01-10T18:29:36;100104.99;;;-9.60;100.00
23899;BME280;20544;50.018;20.010;2024-01-10T18:33:18;100105.13;;;-9.70;100.00
23899;BME280;20544;50.018;20.010;2024-01-10T18:36:38;100102.59;;;-9.72;100.00
23899;BME280;20544;50.018;20.010;2024-01-10T18:39:58;100100.11;;;-9.78;100.00
23899;BME280;20544;50.018;20.010;2024-01-10T18:43:29;100088.24;;;-9.88;100.00
23899;BME280;20544;50.018;20.010;2024-01-10T18:47:06;100084.73;;;-9.81;100.00
23899;BME280;20544;50.018;20.010;2024-01-10T18:50:56;100087.93;;;-9.65;100.00
23899;BME280;20544;50.018;20.010;2024-01-10T18:54:48;100090.41;;;-9.59;100.00
23899;BME280;20544;50.018;20.010;2024-01-10T18:58:58;100082.10;;;-9.77;100.00
23899;BME280;20544;50.018;20.010;2024-01-10T19:02:18;100082.91;;;-9.73;100.00
23899;BME280;20544;50.018;20.010;2024-01-10T19:09:45;100082.70;;;-9.59;100.00
23899;BME280;20544;50.018;20.010;2024-01-10T19:13:25;100076.96;;;-9.77;100.00
23899;BME280;20544;50.018;20.010;2024-01-10T19:16:44;100072.89;;;-9.92;100.00
23899;BME280;20544;50.018;20.010;2024-01-10T19:20:05;100064.32;;;-9.91;100.00
23899;BME280;20544;50.018;20.010;2024-01-10T19:23:26;100060.72;;;-9.79;100.00
23899;BME280;20544;50.018;20.010;2024-01-10T19:26:54;100057.94;;;-9.63;100.00
23899;BME280;20544;50.018;20.010;2024-01-10T19:30:36;100064.69;;;-9.57;100.00
23899;BME280;20544;50.018;20.010;2024-01-10T19:33:55;100075.31;;;-9.81;100.00
23899;BME280;20544;50.018;20.010;2024-01-10T19:37:13;100072.91;;;-9.95;100.00
23899;BME280;20544;50.018;20.010;2024-01-10T19:40:35;100061.05;;;-10.03;100.00
23899;BME280;20544;50.018;20.010;2024-01-10T19:44:08;100061.19;;;-10.13;100.00
23899;BME280;20544;50.018;20.010;2024-01-10T19:47:28;100062.17;;;-10.25;100.00
23899;BME280;20544;50.018;20.010;2024-01-10T19:50:46;100061.36;;;-10.27;100.00
23899;BME280;20544;50.018;20.010;2024-01-10T19:54:06;100059.56;;;-10.20;100.00
23899;BME280;20544;50.018;20.010;2024-01-10T19:57:25;100073.05;;;-10.04;100.00
23899;BME280;20544;50.018;20.010;2024-01-10T20:00:45;100083.27;;;-9.99;100.00
23899;BME280;20544;50.018;20.010;2024-01-10T20:04:18;100076.56;;;-10.11;100.00